createdAt,value
2022-12-14T00:01:49.563Z,-2.20
2022-12-14T00:04:17.575Z,-2.27
2022-12-14T00:06:45.036Z,-2.21
2022-12-14T00:09:12.418Z,-2.36
2022-12-14T00:11:40.170Z,-2.38
2022-12-14T00:14:07.593Z,-2.10
2022-12-14T00:16:35.341Z,-2.50
2022-12-14T00:19:05.280Z,-2.65
2022-12-14T00:21:33.517Z,-2.55
2022-12-14T00:24:00.941Z,-2.54
2022-12-14T00:26:31.427Z,-2.39
2022-12-14T00:29:00.582Z,-2.42
2022-12-14T00:31:28.290Z,-2.19
2022-12-14T00:33:55.968Z,-1.99
2022-12-14T00:36:23.633Z,-1.89
2022-12-14T00:38:51.048Z,-1.89
2022-12-14T00:41:19.608Z,-1.60
2022-12-14T00:43:49.743Z,-2.24
2022-12-14T00:46:17.974Z,-1.71
2022-12-14T00:48:45.895Z,-1.79
2022-12-14T00:51:15.090Z,-1.71
2022-12-14T00:53:44.601Z,-1.49
2022-12-14T00:56:12.436Z,-1.35
2022-12-14T00:58:39.799Z,-1.84
2022-12-14T01:01:12.516Z,-1.47
2022-12-14T01:03:40.532Z,-1.18
2022-12-14T01:06:17.124Z,-1.40
2022-12-14T01:08:44.826Z,-1.72
2022-12-14T01:11:12.881Z,-1.63
2022-12-14T01:13:41.338Z,-1.31
2022-12-14T01:16:11.680Z,-1.33
2022-12-14T01:18:40.110Z,-1.00
2022-12-14T01:21:11.495Z,-1.46
2022-12-14T01:23:39.417Z,-1.10
2022-12-14T01:26:07.008Z,-1.26
2022-12-14T01:28:35.112Z,-0.96
2022-12-14T01:31:23.725Z,-1.17
2022-12-14T01:33:51.147Z,-1.39
2022-12-14T01:36:25.223Z,-1.44
2022-12-14T01:38:58.323Z,-1.74
2022-12-14T01:41:31.618Z,-1.46
2022-12-14T01:44:09.351Z,-1.29
2022-12-14T01:46:41.125Z,-1.16
2022-12-14T01:49:33.017Z,-1.07
2022-12-14T01:52:21.574Z,-1.39
2022-12-14T01:54:56.573Z,-1.22
2022-12-14T01:57:47.436Z,-1.06
2022-12-14T02:00:15.270Z,-0.97
2022-12-14T02:02:48.452Z,-1.33
2022-12-14T02:05:17.290Z,-1.24
2022-12-14T02:07:49.171Z,-1.17
2022-12-14T02:10:16.733Z,-1.11
2022-12-14T02:12:48.395Z,-1.41
2022-12-14T02:15:16.460Z,-1.66
2022-12-14T02:17:45.468Z,-1.40
2022-12-14T02:20:13.885Z,-1.41
2022-12-14T02:22:54.056Z,-1.98
2022-12-14T02:25:33.887Z,-1.77
2022-12-14T02:28:29.487Z,-1.48
2022-12-14T02:31:26.345Z,-1.22
2022-12-14T02:33:58.468Z,-1.77
2022-12-14T02:36:39.070Z,-1.70
2022-12-14T02:39:34.665Z,-1.52
2022-12-14T02:42:13.648Z,-1.44
2022-12-14T02:44:44.350Z,-1.55
2022-12-14T02:47:26.231Z,-1.66
2022-12-14T02:49:59.846Z,-1.39
2022-12-14T02:52:52.287Z,-1.82
2022-12-14T02:55:28.267Z,-1.56
2022-12-14T02:58:01.403Z,-1.75
2022-12-14T03:00:32.332Z,-1.73
2022-12-14T03:03:00.837Z,-1.51
2022-12-14T03:05:28.656Z,-1.37
2022-12-14T03:07:58.172Z,-1.14
2022-12-14T03:10:44.221Z,-1.16
2022-12-14T03:13:31.432Z,-1.45
2022-12-14T03:16:03.140Z,-1.44
2022-12-14T03:18:36.977Z,-1.33
2022-12-14T03:21:06.524Z,-1.13
2022-12-14T03:23:40.800Z,-0.71
2022-12-14T03:26:19.440Z,-1.15
2022-12-14T03:28:50.973Z,-0.93
2022-12-14T03:31:35.113Z,-1.46
2022-12-14T03:34:05.329Z,-1.60
2022-12-14T03:36:54.609Z,-1.34
2022-12-14T03:39:27.637Z,-0.85
2022-12-14T03:42:17.920Z,-1.23
2022-12-14T03:44:54.384Z,-0.95
2022-12-14T03:47:52.623Z,-0.76
2022-12-14T03:50:51.915Z,-1.33
2022-12-14T03:53:25.363Z,-1.17
2022-12-14T03:56:10.953Z,-0.67
2022-12-14T03:58:56.826Z,-0.81
2022-12-14T04:02:04.071Z,-0.88
2022-12-14T04:04:34.431Z,-1.00
2022-12-14T04:07:15.215Z,-0.87
2022-12-14T04:09:49.075Z,-0.46
2022-12-14T04:12:38.548Z,-0.74
2022-12-14T04:15:32.875Z,-0.61
2022-12-14T04:18:22.928Z,-0.45
2022-12-14T04:20:55.359Z,-0.63
2022-12-14T04:23:49.947Z,-0.74
2022-12-14T04:26:19.761Z,-0.80
2022-12-14T04:29:27.249Z,-0.89
2022-12-14T04:32:04.535Z,-0.81
2022-12-14T04:34:33.537Z,-0.61
2022-12-14T04:37:04.577Z,-1.19
2022-12-14T04:39:53.651Z,-0.55
2022-12-14T04:42:31.432Z,-1.10
2022-12-14T04:45:06.559Z,-1.37
2022-12-14T04:47:37.083Z,-0.87
2022-12-14T04:50:27.286Z,-0.96
2022-12-14T04:52:59.718Z,-0.80
2022-12-14T04:55:30.145Z,-1.00
2022-12-14T04:58:15.113Z,-0.72
2022-12-14T05:00:51.780Z,-0.78
2022-12-14T05:03:32.365Z,-0.84
2022-12-14T05:06:09.569Z,-0.86
2022-12-14T05:09:02.273Z,-0.79
2022-12-14T05:11:53.690Z,-0.64
2022-12-14T05:14:27.077Z,-0.78
2022-12-14T05:16:54.544Z,-0.54
2022-12-14T05:19:26.380Z,-0.61
2022-12-14T05:21:54.428Z,-0.51
2022-12-14T05:24:22.150Z,-0.47
2022-12-14T05:26:49.524Z,-0.73
2022-12-14T05:29:17.806Z,-0.62
2022-12-14T05:31:49.457Z,-0.40
2022-12-14T05:34:17.685Z,-0.49
2022-12-14T05:36:45.327Z,-0.51
2022-12-14T05:39:13.270Z,-0.18
2022-12-14T05:41:40.727Z,-0.34
2022-12-14T05:44:08.654Z,-0.57
2022-12-14T05:46:36.049Z,-0.52
2022-12-14T05:49:03.582Z,-0.70
2022-12-14T05:51:31.232Z,-0.69
2022-12-14T05:53:59.054Z,-0.51
2022-12-14T05:56:26.534Z,-0.76
2022-12-14T05:58:54.472Z,-0.85
2022-12-14T06:01:21.992Z,-0.90
2022-12-14T06:03:53.497Z,-0.74
2022-12-14T06:06:21.343Z,-0.86
2022-12-14T06:08:48.902Z,-0.98
2022-12-14T06:11:19.199Z,-0.68
2022-12-14T06:13:47.315Z,-0.41
2022-12-14T06:16:23.093Z,-0.74
2022-12-14T06:18:56.104Z,-0.18
2022-12-14T06:21:27.470Z,-0.91
2022-12-14T06:23:56.057Z,-1.01
2022-12-14T06:26:24.112Z,-0.43
2022-12-14T06:28:51.573Z,-0.80
2022-12-14T06:31:21.781Z,-0.26
2022-12-14T06:33:49.931Z,-0.49
2022-12-14T06:36:21.252Z,-0.29
2022-12-14T06:38:50.087Z,-0.76
2022-12-14T06:41:17.764Z,-0.57
2022-12-14T06:43:45.259Z,-0.89
2022-12-14T06:46:19.462Z,-0.68
2022-12-14T06:48:54.843Z,-0.56
2022-12-14T06:51:23.776Z,-0.54
2022-12-14T06:53:52.179Z,-0.64
2022-12-14T06:56:20.577Z,-0.43
2022-12-14T06:58:48.356Z,-0.62
2022-12-14T07:01:18.541Z,-0.56
2022-12-14T07:03:54.820Z,-0.18
2022-12-14T07:06:23.923Z,-0.55
2022-12-14T07:08:56.356Z,-0.61
2022-12-14T07:11:25.185Z,-0.67
2022-12-14T07:13:53.545Z,-0.36
2022-12-14T07:16:23.712Z,-0.60
2022-12-14T07:18:52.040Z,-0.35
2022-12-14T07:21:20.655Z,-0.45
2022-12-14T07:23:48.749Z,-0.28
2022-12-14T07:26:19.864Z,-0.08
2022-12-14T07:28:47.625Z,-0.70
2022-12-14T07:31:17.503Z,-0.33
2022-12-14T07:33:45.731Z,-0.48
2022-12-14T07:36:15.920Z,-0.61
2022-12-14T07:38:44.585Z,-0.46
2022-12-14T07:41:20.399Z,-0.56
2022-12-14T07:43:49.923Z,-0.41
2022-12-14T07:46:20.602Z,-0.15
2022-12-14T07:48:50.550Z,-0.22
2022-12-14T07:51:20.671Z,-0.45
2022-12-14T07:53:48.885Z,-0.44
2022-12-14T07:56:18.864Z,-0.85
2022-12-14T07:58:46.807Z,-0.93
2022-12-14T08:01:19.862Z,-0.81
2022-12-14T08:03:59.926Z,-0.78
2022-12-14T08:06:29.381Z,-0.51
2022-12-14T08:08:57.685Z,-0.52
2022-12-14T08:11:25.437Z,-0.20
2022-12-14T08:13:56.782Z,-0.63
2022-12-14T08:16:25.556Z,-0.63
2022-12-14T08:18:54.419Z,-0.57
2022-12-14T08:21:23.118Z,-0.73
2022-12-14T08:23:51.529Z,-0.69
2022-12-14T08:26:19.441Z,-0.12
2022-12-14T08:28:47.671Z,-0.28
2022-12-14T08:31:20.515Z,-0.52
2022-12-14T08:33:48.851Z,-0.23
2022-12-14T08:36:22.361Z,-0.27
2022-12-14T08:38:57.958Z,-0.34
2022-12-14T08:41:26.734Z,-0.36
2022-12-14T08:43:56.857Z,0.21
2022-12-14T08:46:25.308Z,-0.05
2022-12-14T08:48:55.003Z,0.05
2022-12-14T08:51:24.241Z,0.08
2022-12-14T08:53:52.393Z,0.11
2022-12-14T08:56:25.548Z,-0.24
2022-12-14T08:58:53.533Z,0.04
2022-12-14T09:01:32.046Z,-0.04
2022-12-14T09:04:08.389Z,0.23
2022-12-14T09:06:38.816Z,-0.17
2022-12-14T09:09:13.308Z,0.21
2022-12-14T09:11:44.617Z,0.38
2022-12-14T09:14:12.088Z,0.24
2022-12-14T09:16:40.354Z,-0.20
2022-12-14T09:19:08.236Z,0.16
2022-12-14T09:21:35.639Z,-0.05
2022-12-14T09:24:03.159Z,0.17
2022-12-14T09:26:30.835Z,0.16
2022-12-14T09:28:58.267Z,0.72
2022-12-14T09:31:26.811Z,0.38
2022-12-14T09:33:55.125Z,0.16
2022-12-14T09:36:25.378Z,0.05
2022-12-14T09:38:55.369Z,0.15
2022-12-14T09:41:30.244Z,0.12
2022-12-14T09:44:25.365Z,0.29
2022-12-14T09:47:11.178Z,-0.23
2022-12-14T09:49:54.828Z,0.22
2022-12-14T09:52:46.577Z,0.23
2022-12-14T09:55:45.695Z,0.23
2022-12-14T09:58:18.645Z,0.39
2022-12-14T10:01:05.579Z,0.18
2022-12-14T10:03:59.325Z,0.54
2022-12-14T10:06:39.563Z,0.57
2022-12-14T10:09:10.221Z,0.96
2022-12-14T10:11:55.822Z,0.91
2022-12-14T10:14:44.567Z,0.83
2022-12-14T10:17:17.846Z,1.02
2022-12-14T10:19:56.241Z,1.14
2022-12-14T10:22:30.647Z,0.81
2022-12-14T10:24:58.316Z,0.93
2022-12-14T10:27:34.168Z,0.72
2022-12-14T10:30:17.454Z,0.81
2022-12-14T10:32:49.296Z,1.04
2022-12-14T10:35:27.431Z,1.12
2022-12-14T10:38:12.485Z,0.86
2022-12-14T10:40:41.728Z,0.86
2022-12-14T10:43:50.823Z,0.71
2022-12-14T10:46:23.752Z,0.80
2022-12-14T10:49:10.868Z,1.46
2022-12-14T10:51:48.992Z,1.13
2022-12-14T10:54:27.246Z,0.97
2022-12-14T10:56:55.349Z,0.58
2022-12-14T10:59:25.368Z,1.07
2022-12-14T11:01:59.304Z,0.94
2022-12-14T11:04:33.084Z,1.33
2022-12-14T11:07:03.813Z,1.15
2022-12-14T11:09:32.007Z,1.21
2022-12-14T11:12:05.476Z,1.04
2022-12-14T11:14:34.529Z,1.42
2022-12-14T11:17:02.082Z,1.11
2022-12-14T11:19:30.048Z,1.27
2022-12-14T11:22:18.675Z,1.23
2022-12-14T11:24:49.578Z,1.09
2022-12-14T11:27:21.026Z,1.21
2022-12-14T11:29:49.430Z,1.35
2022-12-14T11:32:24.743Z,1.35
2022-12-14T11:34:55.507Z,1.36
2022-12-14T11:37:26.323Z,1.54
2022-12-14T11:39:59.385Z,1.53
2022-12-14T11:42:27.368Z,1.89
2022-12-14T11:44:55.087Z,2.14
2022-12-14T11:47:24.080Z,2.08
2022-12-14T11:49:54.473Z,1.67
2022-12-14T11:52:23.272Z,1.61
2022-12-14T11:54:54.329Z,1.73
2022-12-14T11:57:48.174Z,1.55
2022-12-14T12:00:25.732Z,1.64
2022-12-14T12:03:06.661Z,1.20
2022-12-14T12:05:39.617Z,1.81
2022-12-14T12:08:19.219Z,1.29
2022-12-14T12:10:50.115Z,1.59
2022-12-14T12:13:20.867Z,1.25
2022-12-14T12:15:51.248Z,1.62
2022-12-14T12:18:26.540Z,1.62
2022-12-14T12:21:02.168Z,1.69
2022-12-14T12:23:40.892Z,1.09
2022-12-14T12:26:25.067Z,1.30
2022-12-14T12:29:02.376Z,1.20
2022-12-14T12:31:34.862Z,1.27
2022-12-14T12:34:06.392Z,0.85
2022-12-14T12:36:33.787Z,1.06
2022-12-14T12:39:05.905Z,0.92
2022-12-14T12:41:40.568Z,1.02
2022-12-14T12:44:35.855Z,0.78
2022-12-14T12:47:31.203Z,1.05
2022-12-14T12:50:06.563Z,1.23
2022-12-14T12:52:38.585Z,1.29
2022-12-14T12:55:15.184Z,1.24
2022-12-14T12:57:46.225Z,1.48
2022-12-14T13:00:17.362Z,1.63
2022-12-14T13:02:55.398Z,1.51
2022-12-14T13:08:33.811Z,1.27
2022-12-14T13:14:15.252Z,1.63
2022-12-14T13:16:43.197Z,1.60
2022-12-14T13:22:31.515Z,1.32
2022-12-14T13:25:18.248Z,1.79
2022-12-14T13:28:01.184Z,1.52
2022-12-14T13:30:39.778Z,1.81
2022-12-14T13:33:28.702Z,1.97
2022-12-14T13:36:21.212Z,2.00
2022-12-14T13:39:19.388Z,1.86
2022-12-14T13:42:05.771Z,1.38
2022-12-14T13:44:46.491Z,1.57
2022-12-14T13:47:21.821Z,1.89
2022-12-14T13:50:26.712Z,1.76
2022-12-14T13:52:45.079Z,2.27
2022-12-14T13:55:28.989Z,1.88
2022-12-14T13:58:15.597Z,1.40
2022-12-14T14:00:46.576Z,1.53
2022-12-14T14:03:36.475Z,1.71
2022-12-14T14:06:13.037Z,1.43
2022-12-14T14:08:42.800Z,1.67
2022-12-14T14:11:38.638Z,1.90
2022-12-14T14:14:12.413Z,1.51
2022-12-14T14:16:44.994Z,1.27
2022-12-14T14:19:24.108Z,1.17
2022-12-14T14:22:26.008Z,1.38
2022-12-14T14:25:34.907Z,1.23
2022-12-14T14:28:03.961Z,1.33
2022-12-14T14:30:36.177Z,1.27
2022-12-14T14:33:43.107Z,1.41
2022-12-14T14:35:51.776Z,1.36
2022-12-14T14:38:31.360Z,1.18
2022-12-14T14:41:17.680Z,0.80
2022-12-14T14:43:54.467Z,1.26
2022-12-14T14:46:34.149Z,1.19
2022-12-14T14:49:01.635Z,1.26
2022-12-14T14:51:31.027Z,0.89
2022-12-14T14:54:46.135Z,0.81
2022-12-14T14:57:36.059Z,0.89
2022-12-14T15:00:05.134Z,1.04
2022-12-14T15:02:40.134Z,0.87
2022-12-14T15:08:32.726Z,1.26
2022-12-14T15:11:04.827Z,1.17
2022-12-14T15:13:44.185Z,1.05
2022-12-14T15:16:41.228Z,1.23
2022-12-14T15:19:25.642Z,1.28
2022-12-14T15:22:13.777Z,1.27
2022-12-14T15:24:43.544Z,1.35
2022-12-14T15:27:26.416Z,1.08
2022-12-14T15:30:12.439Z,1.42
2022-12-14T15:32:47.448Z,1.48
2022-12-14T15:35:18.079Z,1.57
2022-12-14T15:37:58.024Z,1.87
2022-12-14T15:40:32.316Z,1.48
2022-12-14T15:43:16.117Z,1.41
2022-12-14T15:45:46.188Z,1.50
2022-12-14T15:48:27.690Z,1.56
2022-12-14T15:51:03.043Z,1.74
2022-12-14T15:53:34.420Z,1.57
2022-12-14T15:56:11.825Z,1.44
2022-12-14T15:58:40.877Z,1.66
2022-12-14T16:01:24.906Z,1.58
2022-12-14T16:03:54.686Z,1.96
2022-12-14T16:06:23.572Z,1.89
2022-12-14T16:09:04.246Z,1.98
2022-12-14T16:11:36.022Z,1.73
2022-12-14T16:14:09.817Z,2.01
2022-12-14T16:16:37.669Z,1.84
2022-12-14T16:19:25.858Z,1.59
2022-12-14T16:22:10.139Z,1.63
2022-12-14T16:24:38.510Z,1.18
2022-12-14T16:27:17.900Z,1.58
2022-12-14T16:30:16.911Z,1.75
2022-12-14T16:32:49.838Z,1.21
2022-12-14T16:35:20.134Z,1.11
2022-12-14T16:37:51.285Z,1.27
2022-12-14T16:40:33.784Z,1.11
2022-12-14T16:43:02.348Z,1.09
2022-12-14T16:45:36.120Z,1.02
2022-12-14T16:48:09.147Z,1.44
2022-12-14T16:53:29.579Z,1.42
2022-12-14T16:56:19.620Z,1.40
2022-12-14T16:59:03.619Z,1.55
2022-12-14T17:01:42.044Z,2.14
2022-12-14T17:04:11.523Z,2.24
2022-12-14T17:06:54.298Z,1.91
2022-12-14T17:09:24.981Z,1.51
2022-12-14T17:11:54.632Z,1.51
2022-12-14T17:14:23.924Z,1.59
2022-12-14T17:17:00.653Z,1.58
2022-12-14T17:19:34.722Z,1.34
2022-12-14T17:22:04.432Z,1.41
2022-12-14T17:24:33.394Z,1.07
2022-12-14T17:27:02.400Z,1.06
2022-12-14T17:29:31.272Z,1.11
2022-12-14T17:32:02.851Z,1.54
2022-12-14T17:34:31.049Z,1.22
2022-12-14T17:37:03.239Z,1.33
2022-12-14T17:39:35.715Z,1.54
2022-12-14T17:42:06.470Z,1.83
2022-12-14T17:44:34.985Z,2.00
2022-12-14T17:47:04.015Z,2.17
2022-12-14T17:49:36.396Z,2.02
2022-12-14T17:52:07.735Z,2.14
2022-12-14T17:54:36.018Z,1.85
2022-12-14T17:57:07.394Z,2.02
2022-12-14T17:59:35.316Z,1.84
2022-12-14T18:02:03.135Z,1.74
2022-12-14T18:04:34.674Z,1.41
2022-12-14T18:07:03.731Z,1.50
2022-12-14T18:09:32.350Z,1.57
2022-12-14T18:12:22.601Z,1.69
2022-12-14T18:14:52.446Z,1.30
2022-12-14T18:17:20.489Z,1.96
2022-12-14T18:19:50.227Z,1.73
2022-12-14T18:22:19.106Z,1.50
2022-12-14T18:24:49.152Z,1.29
2022-12-14T18:27:19.200Z,1.37
2022-12-14T18:29:47.706Z,2.04
2022-12-14T18:32:16.610Z,1.73
2022-12-14T18:34:46.814Z,1.77
2022-12-14T18:37:18.710Z,1.54
2022-12-14T18:39:51.360Z,1.76
2022-12-14T18:42:22.620Z,1.81
2022-12-14T18:44:53.469Z,2.29
2022-12-14T18:47:41.052Z,1.95
2022-12-14T18:50:14.811Z,2.14
2022-12-14T18:52:45.401Z,1.85
2022-12-14T18:55:18.913Z,1.25
2022-12-14T18:57:49.495Z,1.65
2022-12-14T19:00:21.215Z,1.61
2022-12-14T19:02:50.526Z,1.50
2022-12-14T19:05:26.109Z,2.12
2022-12-14T19:08:00.454Z,1.66
2022-12-14T19:10:31.789Z,1.72
2022-12-14T19:13:01.277Z,1.54
2022-12-14T19:15:33.399Z,1.84
2022-12-14T19:18:05.337Z,1.78
2022-12-14T19:20:34.653Z,1.50
2022-12-14T19:23:05.593Z,1.33
2022-12-14T19:25:35.296Z,1.52
2022-12-14T19:30:58.653Z,1.98
2022-12-14T19:33:30.521Z,1.38
2022-12-14T19:36:00.925Z,1.98
2022-12-14T19:38:32.384Z,2.19
2022-12-14T19:41:04.691Z,2.39
2022-12-14T19:43:35.063Z,1.92
2022-12-14T19:46:14.831Z,1.79
2022-12-14T19:48:45.285Z,1.75
2022-12-14T19:51:15.883Z,1.87
2022-12-14T19:53:48.849Z,1.71
2022-12-14T19:56:19.281Z,1.74
2022-12-14T19:58:54.130Z,1.62
2022-12-14T20:01:40.727Z,1.72
2022-12-14T20:04:20.233Z,1.57
2022-12-14T20:06:52.297Z,1.84
2022-12-14T20:09:25.179Z,1.55
2022-12-14T20:11:54.239Z,1.74
2022-12-14T20:14:23.757Z,1.54
2022-12-14T20:16:53.078Z,1.46
2022-12-14T20:19:25.801Z,1.41
2022-12-14T20:21:55.200Z,1.85
2022-12-14T20:24:23.719Z,2.19
2022-12-14T20:26:55.041Z,1.75
2022-12-14T20:29:25.031Z,1.55
2022-12-14T20:31:55.870Z,1.57
2022-12-14T20:34:29.672Z,1.64
2022-12-14T20:36:59.511Z,2.05
2022-12-14T20:39:28.893Z,2.12
2022-12-14T20:41:58.234Z,2.18
2022-12-14T20:44:27.033Z,2.47
2022-12-14T20:46:57.313Z,2.36
2022-12-14T20:49:31.594Z,2.45
2022-12-14T20:52:00.672Z,2.31
2022-12-14T20:54:29.982Z,2.51
2022-12-14T20:57:01.177Z,2.05
2022-12-14T20:59:30.182Z,2.45
2022-12-14T21:01:59.074Z,1.99
2022-12-14T21:04:29.861Z,2.11
2022-12-14T21:06:58.552Z,2.43
2022-12-14T21:09:27.015Z,2.51
2022-12-14T21:12:13.641Z,2.47
2022-12-14T21:14:48.117Z,2.14
2022-12-14T21:17:16.657Z,1.85
2022-12-14T21:19:44.803Z,1.94
2022-12-14T21:22:16.749Z,2.04
2022-12-14T21:25:03.134Z,2.18
2022-12-14T21:27:33.463Z,2.69
2022-12-14T21:30:01.880Z,2.58
2022-12-14T21:32:31.192Z,2.44
2022-12-14T21:34:58.680Z,1.97
2022-12-14T21:37:27.639Z,2.20
2022-12-14T21:39:55.899Z,2.51
2022-12-14T21:42:24.434Z,2.02
2022-12-14T21:44:52.963Z,2.23
2022-12-14T21:47:28.381Z,2.39
2022-12-14T21:49:56.459Z,2.40
2022-12-14T21:52:26.327Z,2.25
2022-12-14T21:54:53.745Z,2.46
2022-12-14T21:57:42.031Z,2.50
2022-12-14T22:00:10.547Z,2.66
2022-12-14T22:02:39.720Z,2.15
2022-12-14T22:05:07.930Z,2.14
2022-12-14T22:07:35.289Z,2.11
2022-12-14T22:10:03.018Z,2.00
2022-12-14T22:12:30.646Z,2.45
2022-12-14T22:14:58.031Z,2.54
2022-12-14T22:17:25.444Z,2.54
2022-12-14T22:19:55.069Z,2.76
2022-12-14T22:22:22.800Z,2.95
2022-12-14T22:24:51.367Z,2.80
2022-12-14T22:27:19.855Z,2.56
2022-12-14T22:29:47.293Z,2.55
2022-12-14T22:32:15.605Z,2.71
2022-12-14T22:34:43.407Z,2.92
2022-12-14T22:37:14.562Z,3.03
2022-12-14T22:39:42.027Z,2.86
2022-12-14T22:42:10.530Z,3.44
2022-12-14T22:44:38.301Z,3.00
2022-12-14T22:47:05.760Z,3.04
2022-12-14T22:49:33.392Z,3.28
2022-12-14T22:52:00.765Z,2.91
2022-12-14T22:54:28.143Z,2.71
2022-12-14T22:57:13.852Z,2.92
2022-12-14T22:59:45.283Z,2.99
2022-12-14T23:02:13.107Z,3.19
2022-12-14T23:04:40.719Z,3.00
2022-12-14T23:07:08.068Z,2.79
2022-12-14T23:09:54.426Z,3.00
2022-12-14T23:12:40.778Z,2.79
2022-12-14T23:15:27.239Z,2.61
2022-12-14T23:18:19.171Z,2.80
2022-12-14T23:21:05.531Z,3.19
2022-12-14T23:23:51.326Z,2.77
2022-12-14T23:26:37.777Z,2.77
2022-12-14T23:29:23.603Z,2.89
2022-12-14T23:32:09.540Z,2.67
2022-12-14T23:34:55.692Z,2.60
2022-12-14T23:37:42.072Z,2.25
2022-12-14T23:40:28.631Z,2.67
2022-12-14T23:43:14.812Z,2.37
2022-12-14T23:46:01.791Z,3.07
2022-12-14T23:48:47.906Z,3.22
2022-12-14T23:51:34.021Z,3.40
2022-12-14T23:54:20.295Z,3.25
2022-12-14T23:57:06.350Z,3.11
2022-12-14T23:59:54.802Z,3.04
